createdAt,value
2022-09-07T00:00:40.032Z,101671.50
2022-09-07T00:03:07.745Z,101668.88
2022-09-07T00:05:34.650Z,101662.50
2022-09-07T00:08:01.614Z,101659.91
2022-09-07T00:10:28.976Z,101656.41
2022-09-07T00:12:55.679Z,101654.28
2022-09-07T00:15:22.423Z,101640.72
2022-09-07T00:17:49.189Z,101632.66
2022-09-07T00:20:15.923Z,101621.78
2022-09-07T00:22:42.611Z,101611.81
2022-09-07T00:25:09.566Z,101617.44
2022-09-07T00:27:36.237Z,101635.34
2022-09-07T00:30:03.563Z,101646.06
2022-09-07T00:32:30.349Z,101642.34
2022-09-07T00:34:57.190Z,101645.72
2022-09-07T00:37:24.089Z,101650.06
2022-09-07T00:39:51.982Z,101651.06
2022-09-07T00:42:21.137Z,101655.78
2022-09-07T00:45:00.075Z,101659.66
2022-09-07T00:47:34.677Z,101659.25
2022-09-07T00:50:07.963Z,101665.00
2022-09-07T00:52:37.413Z,101662.50
2022-09-07T00:55:10.025Z,101659.50
2022-09-07T00:57:39.141Z,101646.56
2022-09-07T01:00:06.445Z,101639.09
2022-09-07T01:02:33.360Z,101643.47
2022-09-07T01:05:41.521Z,101646.06
2022-09-07T01:08:09.459Z,101632.38
2022-09-07T01:10:37.640Z,101634.38
2022-09-07T01:13:04.729Z,101633.63
2022-09-07T01:15:50.731Z,101631.38
2022-09-07T01:18:31.561Z,101629.28
2022-09-07T01:21:16.806Z,101628.03
2022-09-07T01:24:03.426Z,101634.00
2022-09-07T01:26:54.609Z,101624.16
2022-09-07T01:29:55.619Z,101617.31
2022-09-07T01:32:41.295Z,101604.47
2022-09-07T01:35:21.802Z,101596.25
2022-09-07T01:38:15.708Z,101580.31
2022-09-07T01:41:32.187Z,101590.78
2022-09-07T01:43:58.742Z,101587.78
2022-09-07T01:46:35.413Z,101577.22
2022-09-07T01:49:12.115Z,101585.19
2022-09-07T01:51:44.017Z,101596.16
2022-09-07T01:54:33.735Z,101604.84
2022-09-07T01:57:10.624Z,101612.44
2022-09-07T01:59:53.287Z,101614.34
2022-09-07T02:02:29.449Z,101614.09
2022-09-07T02:05:05.343Z,101613.84
2022-09-07T02:07:45.355Z,101619.44
2022-09-07T02:10:49.687Z,101621.81
2022-09-07T02:13:19.584Z,101622.66
2022-09-07T02:15:56.491Z,101617.19
2022-09-07T02:18:28.285Z,101615.34
2022-09-07T02:20:58.259Z,101612.19
2022-09-07T02:23:30.756Z,101613.34
2022-09-07T02:26:04.579Z,101616.69
2022-09-07T02:28:36.807Z,101607.88
2022-09-07T02:31:04.373Z,101608.47
2022-09-07T02:33:31.429Z,101597.66
2022-09-07T02:35:58.418Z,101596.78
2022-09-07T02:38:25.726Z,101587.06
2022-09-07T02:40:55.065Z,101583.56
2022-09-07T02:43:23.958Z,101575.50
2022-09-07T02:45:53.779Z,101567.28
2022-09-07T02:48:48.558Z,101562.16
2022-09-07T02:51:32.454Z,101568.38
2022-09-07T02:54:34.705Z,101552.22
2022-09-07T02:57:18.221Z,101552.34
2022-09-07T03:00:10.960Z,101542.13
2022-09-07T03:03:03.850Z,101537.78
2022-09-07T03:05:47.292Z,101523.47
2022-09-07T03:08:25.230Z,101523.22
2022-09-07T03:10:53.530Z,101513.63
2022-09-07T03:13:26.107Z,101515.25
2022-09-07T03:15:55.963Z,101510.13
2022-09-07T03:18:24.411Z,101517.22
2022-09-07T03:20:51.840Z,101514.34
2022-09-07T03:23:18.805Z,101513.34
2022-09-07T03:25:47.246Z,101510.53
2022-09-07T03:28:13.973Z,101514.75
2022-09-07T03:30:46.128Z,101516.22
2022-09-07T03:33:15.833Z,101518.47
2022-09-07T03:35:56.444Z,101523.09
2022-09-07T03:38:23.175Z,101529.31
2022-09-07T03:41:05.337Z,101538.25
2022-09-07T03:43:33.022Z,101546.88
2022-09-07T03:46:02.200Z,101560.41
2022-09-07T03:48:35.694Z,101541.63
2022-09-07T03:51:10.899Z,101540.50
2022-09-07T03:53:40.692Z,101538.50
2022-09-07T03:56:11.360Z,101542.38
2022-09-07T03:58:38.793Z,101542.50
2022-09-07T04:01:08.129Z,101542.59
2022-09-07T04:03:35.221Z,101531.31
2022-09-07T04:06:02.906Z,101541.00
2022-09-07T04:08:32.006Z,101535.53
2022-09-07T04:11:00.171Z,101539.91
2022-09-07T04:13:28.299Z,101513.38
2022-09-07T04:15:55.785Z,101509.91
2022-09-07T04:18:23.717Z,101513.63
2022-09-07T04:20:51.124Z,101515.38
2022-09-07T04:23:19.195Z,101509.16
2022-09-07T04:25:50.903Z,101504.16
2022-09-07T04:28:19.244Z,101492.59
2022-09-07T04:30:47.515Z,101494.84
2022-09-07T04:33:15.561Z,101476.94
2022-09-07T04:35:45.169Z,101462.31
2022-09-07T04:38:16.336Z,101450.88
2022-09-07T04:40:43.919Z,101448.34
2022-09-07T04:43:13.145Z,101439.91
2022-09-07T04:45:40.425Z,101439.81
2022-09-07T04:48:38.708Z,101437.16
2022-09-07T04:51:17.412Z,101439.13
2022-09-07T04:53:52.906Z,101436.06
2022-09-07T04:56:20.754Z,101443.63
2022-09-07T04:58:47.662Z,101435.63
2022-09-07T05:01:17.812Z,101433.13
2022-09-07T05:03:44.784Z,101435.38
2022-09-07T05:06:12.143Z,101436.91
2022-09-07T05:08:44.718Z,101435.53
2022-09-07T05:11:12.831Z,101440.13
2022-09-07T05:13:39.748Z,101448.34
2022-09-07T05:16:14.849Z,101443.97
2022-09-07T05:18:41.962Z,101448.97
2022-09-07T05:21:17.563Z,101446.69
2022-09-07T05:23:44.662Z,101445.50
2022-09-07T05:26:12.060Z,101466.34
2022-09-07T05:28:39.332Z,101454.19
2022-09-07T05:31:19.633Z,101464.50
2022-09-07T05:36:36.932Z,101464.59
2022-09-07T05:39:05.529Z,101460.75
2022-09-07T05:41:32.184Z,101454.91
2022-09-07T05:46:52.219Z,101473.72
2022-09-07T05:49:18.913Z,101480.31
2022-09-07T05:51:45.641Z,101490.53
2022-09-07T05:54:12.392Z,101497.75
2022-09-07T05:56:39.170Z,101509.84
2022-09-07T05:59:06.133Z,101522.03
2022-09-07T06:01:35.135Z,101524.53
2022-09-07T06:04:02.023Z,101527.25
2022-09-07T06:06:28.810Z,101526.78
2022-09-07T06:08:57.723Z,101525.38
2022-09-07T06:11:26.282Z,101518.09
2022-09-07T06:13:53.257Z,101506.88
2022-09-07T06:16:20.663Z,101489.09
2022-09-07T06:18:49.519Z,101470.81
2022-09-07T06:21:20.323Z,101482.25
2022-09-07T06:23:47.836Z,101487.25
2022-09-07T06:26:16.608Z,101510.09
2022-09-07T06:28:50.211Z,101521.38
2022-09-07T06:31:20.779Z,101508.53
2022-09-07T06:33:48.127Z,101492.97
2022-09-07T06:36:16.748Z,101469.03
2022-09-07T06:38:44.206Z,101472.03
2022-09-07T06:44:06.501Z,101489.03
2022-09-07T06:49:19.965Z,101481.91
2022-09-07T06:51:46.686Z,101471.63
2022-09-07T06:57:00.157Z,101475.56
2022-09-07T06:59:26.831Z,101475.91
2022-09-07T07:01:53.501Z,101468.06
2022-09-07T07:04:20.818Z,101463.41
2022-09-07T07:06:47.521Z,101457.59
2022-09-07T07:09:14.280Z,101457.28
2022-09-07T07:11:43.567Z,101455.00
2022-09-07T07:14:17.896Z,101451.69
2022-09-07T07:16:44.723Z,101445.47
2022-09-07T07:19:11.599Z,101437.72
2022-09-07T07:22:07.401Z,101439.81
2022-09-07T07:24:25.079Z,101457.00
2022-09-07T07:26:51.941Z,101446.31
2022-09-07T07:29:19.033Z,101461.00
2022-09-07T07:31:47.217Z,101452.63
2022-09-07T07:34:15.267Z,101452.94
2022-09-07T07:36:42.120Z,101452.94
2022-09-07T07:41:58.910Z,101449.47
2022-09-07T07:44:28.496Z,101435.09
2022-09-07T07:46:55.216Z,101440.09
2022-09-07T07:49:22.041Z,101427.47
2022-09-07T07:54:37.001Z,101447.00
2022-09-07T07:57:05.895Z,101447.25
2022-09-07T07:59:32.892Z,101454.56
2022-09-07T08:02:08.022Z,101443.28
2022-09-07T08:04:35.471Z,101430.84
2022-09-07T08:07:08.724Z,101432.47
2022-09-07T08:09:39.447Z,101438.81
2022-09-07T08:12:06.341Z,101425.81
2022-09-07T08:14:33.110Z,101433.06
2022-09-07T08:16:59.789Z,101435.41
2022-09-07T08:19:26.442Z,101432.09
2022-09-07T08:21:53.110Z,101431.81
2022-09-07T08:24:21.013Z,101436.31
2022-09-07T08:26:47.873Z,101421.31
2022-09-07T08:29:15.058Z,101403.78
2022-09-07T08:31:42.021Z,101412.91
2022-09-07T08:34:09.165Z,101411.75
2022-09-07T08:36:35.863Z,101428.41
2022-09-07T08:39:04.014Z,101412.63
2022-09-07T08:41:55.581Z,101421.31
2022-09-07T08:44:32.013Z,101412.03
2022-09-07T08:47:05.748Z,101411.16
2022-09-07T08:49:47.588Z,101418.69
2022-09-07T08:52:40.451Z,101415.94
2022-09-07T08:55:18.793Z,101405.50
2022-09-07T08:57:53.163Z,101404.78
2022-09-07T09:00:20.343Z,101415.94
2022-09-07T09:03:28.644Z,101423.91
2022-09-07T09:05:57.880Z,101421.59
2022-09-07T09:08:40.960Z,101407.00
2022-09-07T09:11:12.474Z,101402.19
2022-09-07T09:14:03.470Z,101396.09
2022-09-07T09:16:33.065Z,101390.19
2022-09-07T09:19:21.520Z,101424.47
2022-09-07T09:21:48.275Z,101409.53
2022-09-07T09:24:19.240Z,101412.91
2022-09-07T09:26:51.597Z,101435.75
2022-09-07T09:29:23.235Z,101448.38
2022-09-07T09:31:49.982Z,101458.34
2022-09-07T09:34:19.713Z,101466.75
2022-09-07T09:36:55.061Z,101448.66
2022-09-07T09:42:15.419Z,101472.69
2022-09-07T09:44:43.555Z,101476.00
2022-09-07T09:47:36.098Z,101479.50
2022-09-07T09:52:29.294Z,101478.31
2022-09-07T09:53:05.291Z,101485.00
2022-09-07T09:55:36.371Z,101467.34
2022-09-07T10:01:26.891Z,101464.56
2022-09-07T10:06:20.561Z,101464.88
2022-09-07T10:09:02.266Z,101456.69
2022-09-07T10:14:43.371Z,101456.25
2022-09-07T10:17:23.297Z,101451.31
2022-09-07T10:19:50.043Z,101455.66
2022-09-07T10:22:37.563Z,101455.91
2022-09-07T10:25:25.475Z,101464.25
2022-09-07T10:28:15.575Z,101460.50
2022-09-07T10:31:16.518Z,101453.06
2022-09-07T10:34:32.530Z,101452.59
2022-09-07T10:37:04.393Z,101446.13
2022-09-07T10:40:06.974Z,101440.88
2022-09-07T10:43:20.253Z,101430.47
2022-09-07T10:46:13.897Z,101418.84
2022-09-07T10:49:18.424Z,101417.03
2022-09-07T10:52:00.215Z,101420.31
2022-09-07T10:55:14.791Z,101433.31
2022-09-07T10:57:57.827Z,101434.53
2022-09-07T11:00:25.789Z,101430.13
2022-09-07T11:05:58.945Z,101423.38
2022-09-07T11:14:31.229Z,101404.91
2022-09-07T11:17:02.867Z,101388.19
2022-09-07T11:19:40.433Z,101369.19
2022-09-07T11:22:26.561Z,101380.34
2022-09-07T11:25:32.838Z,101372.97
2022-09-07T11:28:12.905Z,101345.53
2022-09-07T11:30:59.663Z,101345.06
2022-09-07T11:36:46.190Z,101328.66
2022-09-07T11:39:26.966Z,101318.34
2022-09-07T11:42:42.872Z,101301.88
2022-09-07T11:44:55.335Z,101293.66
2022-09-07T11:47:42.757Z,101273.41
2022-09-07T11:50:16.619Z,101273.16
2022-09-07T11:52:53.702Z,101266.78
2022-09-07T11:55:27.480Z,101274.63
2022-09-07T11:58:13.277Z,101278.00
2022-09-07T12:00:48.527Z,101281.59
2022-09-07T12:03:59.019Z,101282.28
2022-09-07T12:06:52.044Z,101292.09
2022-09-07T12:09:18.718Z,101295.13
2022-09-07T12:12:12.994Z,101303.59
2022-09-07T12:14:50.587Z,101304.25
2022-09-07T12:17:35.529Z,101315.81
2022-09-07T12:20:21.020Z,101317.81
2022-09-07T12:23:05.410Z,101322.34
2022-09-07T12:25:33.662Z,101320.41
2022-09-07T12:28:00.817Z,101330.91
2022-09-07T12:30:28.217Z,101320.63
2022-09-07T12:33:04.463Z,101316.06
2022-09-07T12:35:37.122Z,101324.81
2022-09-07T12:38:24.773Z,101319.47
2022-09-07T12:40:54.692Z,101326.53
2022-09-07T12:43:37.438Z,101330.56
2022-09-07T12:46:04.369Z,101330.03
2022-09-07T12:48:49.960Z,101329.63
2022-09-07T12:54:43.117Z,101326.91
2022-09-07T12:57:32.168Z,101328.03
2022-09-07T13:00:11.822Z,101323.19
2022-09-07T13:09:38.341Z,101311.84
2022-09-07T13:15:40.661Z,101309.41
2022-09-07T13:18:28.801Z,101315.94
2022-09-07T13:21:07.750Z,101296.81
2022-09-07T13:23:38.703Z,101299.97
2022-09-07T13:26:08.715Z,101295.13
2022-09-07T13:28:41.381Z,101292.34
2022-09-07T13:31:11.083Z,101297.13
2022-09-07T13:33:52.893Z,101295.13
2022-09-07T13:36:29.028Z,101299.34
2022-09-07T13:38:56.502Z,101295.00
2022-09-07T13:41:29.515Z,101295.91
2022-09-07T13:44:02.044Z,101302.13
2022-09-07T13:46:40.875Z,101288.31
2022-09-07T13:49:21.909Z,101301.13
2022-09-07T13:52:00.408Z,101292.50
2022-09-07T13:54:54.881Z,101302.50
2022-09-07T13:57:32.952Z,101287.28
2022-09-07T13:59:59.690Z,101277.47
2022-09-07T14:02:38.799Z,101289.44
2022-09-07T14:05:18.651Z,101281.28
2022-09-07T14:07:46.081Z,101274.72
2022-09-07T14:10:15.809Z,101274.91
2022-09-07T14:12:53.953Z,101276.97
2022-09-07T14:15:41.356Z,101276.44
2022-09-07T14:18:13.812Z,101269.03
2022-09-07T14:20:50.591Z,101264.53
2022-09-07T14:23:29.990Z,101284.59
2022-09-07T14:26:18.679Z,101264.88
2022-09-07T14:28:57.062Z,101262.09
2022-09-07T14:31:25.453Z,101258.66
2022-09-07T14:33:56.930Z,101262.63
2022-09-07T14:36:46.455Z,101265.03
2022-09-07T14:39:19.468Z,101264.44
2022-09-07T14:41:47.251Z,101248.63
2022-09-07T14:44:36.782Z,101256.41
2022-09-07T14:47:08.171Z,101257.09
2022-09-07T14:49:35.055Z,101265.75
2022-09-07T14:52:02.048Z,101256.25
2022-09-07T14:54:34.246Z,101268.13
2022-09-07T14:57:11.700Z,101251.38
2022-09-07T14:59:48.525Z,101251.84
2022-09-07T15:02:18.300Z,101239.28
2022-09-07T15:05:18.394Z,101246.03
2022-09-07T15:07:55.304Z,101255.69
2022-09-07T15:10:23.204Z,101248.59
2022-09-07T15:12:55.249Z,101240.47
2022-09-07T15:15:26.708Z,101252.75
2022-09-07T15:18:08.881Z,101260.19
2022-09-07T15:20:41.683Z,101244.63
2022-09-07T15:23:19.338Z,101232.66
2022-09-07T15:25:53.572Z,101233.38
2022-09-07T15:34:26.800Z,101245.50
2022-09-07T15:36:55.641Z,101249.63
2022-09-07T15:39:25.725Z,101247.50
2022-09-07T15:41:52.735Z,101236.78
2022-09-07T15:44:24.322Z,101223.22
2022-09-07T15:49:43.503Z,101218.16
2022-09-07T15:52:13.247Z,101225.06
2022-09-07T15:54:40.112Z,101222.25
2022-09-07T15:59:53.715Z,101203.38
2022-09-07T16:05:07.953Z,101225.41
2022-09-07T16:10:21.674Z,101215.00
2022-09-07T16:13:10.704Z,101223.53
2022-09-07T16:15:35.411Z,101227.53
2022-09-07T16:18:02.589Z,101247.56
2022-09-07T16:20:32.089Z,101256.19
2022-09-07T16:23:16.018Z,101268.28
2022-09-07T16:25:55.122Z,101250.66
2022-09-07T16:28:21.807Z,101262.06
2022-09-07T16:30:49.928Z,101252.56
2022-09-07T16:33:16.720Z,101268.63
2022-09-07T16:35:43.404Z,101259.84
2022-09-07T16:40:58.083Z,101269.16
2022-09-07T16:43:25.285Z,101268.63
2022-09-07T16:46:08.421Z,101267.78
2022-09-07T16:48:36.638Z,101253.09
2022-09-07T16:51:05.051Z,101256.19
2022-09-07T16:53:34.414Z,101253.19
2022-09-07T16:56:16.893Z,101255.56
2022-09-07T16:58:54.057Z,101254.38
2022-09-07T17:01:24.139Z,101259.34
2022-09-07T17:03:51.582Z,101249.59
2022-09-07T17:06:22.288Z,101252.28
2022-09-07T17:08:49.354Z,101255.03
2022-09-07T17:11:19.109Z,101248.81
2022-09-07T17:13:46.684Z,101265.56
2022-09-07T17:16:18.171Z,101260.13
2022-09-07T17:24:26.473Z,101250.53
2022-09-07T17:27:13.299Z,101263.59
2022-09-07T17:29:43.435Z,101272.91
2022-09-07T17:32:39.841Z,101269.88
2022-09-07T17:35:09.967Z,101277.41
2022-09-07T17:37:36.642Z,101276.38
2022-09-07T17:40:05.761Z,101279.69
2022-09-07T17:45:36.762Z,101289.88
2022-09-07T17:48:03.692Z,101281.03
2022-09-07T17:50:31.782Z,101282.22
2022-09-07T17:52:59.515Z,101282.13
2022-09-07T17:55:26.143Z,101283.09
2022-09-07T17:57:53.838Z,101287.50
2022-09-07T18:00:20.779Z,101288.19
2022-09-07T18:02:47.660Z,101292.47
2022-09-07T18:05:14.486Z,101290.09
2022-09-07T18:07:41.171Z,101301.75
2022-09-07T18:10:11.450Z,101301.38
2022-09-07T18:12:39.082Z,101306.06
2022-09-07T18:15:07.181Z,101303.50
2022-09-07T18:17:41.072Z,101310.97
2022-09-07T18:20:09.425Z,101312.91
2022-09-07T18:22:36.201Z,101312.50
2022-09-07T18:25:10.067Z,101306.06
2022-09-07T18:34:15.145Z,101309.53
2022-09-07T18:36:44.332Z,101312.28
2022-09-07T18:39:13.221Z,101311.28
2022-09-07T18:41:42.243Z,101307.72
2022-09-07T18:46:57.630Z,101315.06
2022-09-07T18:49:26.280Z,101307.81
2022-09-07T19:01:04.458Z,101313.69
2022-09-07T19:03:37.933Z,101318.63
2022-09-07T19:09:12.548Z,101309.09
2022-09-07T19:11:42.083Z,101303.13
2022-09-07T19:14:09.217Z,101309.53
2022-09-07T19:17:08.650Z,101306.06
2022-09-07T19:19:40.003Z,101301.50
2022-09-07T19:22:08.455Z,101311.06
2022-09-07T19:24:39.979Z,101315.88
2022-09-07T19:27:07.402Z,101301.50
2022-09-07T19:29:34.387Z,101305.16
2022-09-07T19:32:10.105Z,101305.88
2022-09-07T19:34:42.380Z,101313.88
2022-09-07T19:37:14.456Z,101317.59
2022-09-07T19:39:41.200Z,101312.56
2022-09-07T19:42:08.040Z,101317.50
2022-09-07T19:44:35.204Z,101312.16
2022-09-07T19:47:02.475Z,101312.00
2022-09-07T19:49:30.899Z,101314.00
2022-09-07T19:51:57.663Z,101303.91
2022-09-07T19:54:24.433Z,101307.56
2022-09-07T19:56:51.196Z,101309.13
2022-09-07T19:59:19.921Z,101311.88
2022-09-07T20:01:49.995Z,101314.50
2022-09-07T20:04:20.585Z,101312.25
2022-09-07T20:06:50.997Z,101305.84
2022-09-07T20:09:19.086Z,101306.56
2022-09-07T20:11:47.841Z,101302.13
2022-09-07T20:14:16.441Z,101304.00
2022-09-07T20:16:43.785Z,101301.69
2022-09-07T20:19:12.134Z,101297.19
2022-09-07T20:21:40.191Z,101286.50
2022-09-07T20:24:06.875Z,101280.03
2022-09-07T20:26:35.267Z,101280.16
2022-09-07T20:29:26.222Z,101272.63
2022-09-07T20:31:54.493Z,101272.78
2022-09-07T20:34:21.952Z,101256.13
2022-09-07T20:36:54.027Z,101244.28
2022-09-07T20:39:21.437Z,101253.13
2022-09-07T20:41:48.335Z,101247.94
2022-09-07T20:44:15.237Z,101240.69
2022-09-07T20:46:42.185Z,101242.72
2022-09-07T20:49:09.788Z,101233.03
2022-09-07T20:51:36.500Z,101227.25
2022-09-07T20:54:03.401Z,101239.44
2022-09-07T20:56:30.552Z,101232.63
2022-09-07T20:59:00.144Z,101232.63
2022-09-07T21:01:27.930Z,101226.53
2022-09-07T21:03:57.197Z,101230.91
2022-09-07T21:06:25.393Z,101223.94
2022-09-07T21:08:52.326Z,101223.81
2022-09-07T21:11:22.258Z,101212.94
2022-09-07T21:14:01.930Z,101203.41
2022-09-07T21:16:29.297Z,101204.56
2022-09-07T21:19:00.646Z,101202.78
2022-09-07T21:21:28.695Z,101202.84
2022-09-07T21:24:00.571Z,101195.56
2022-09-07T21:26:29.192Z,101186.94
2022-09-07T21:28:57.724Z,101185.75
2022-09-07T21:31:25.528Z,101183.06
2022-09-07T21:33:57.070Z,101176.50
2022-09-07T21:36:24.558Z,101171.34
2022-09-07T21:38:51.584Z,101166.28
2022-09-07T21:41:20.664Z,101163.78
2022-09-07T21:43:47.614Z,101153.38
2022-09-07T21:46:17.403Z,101152.22
2022-09-07T21:48:45.701Z,101141.91
2022-09-07T21:51:13.568Z,101148.47
2022-09-07T21:53:40.953Z,101141.13
2022-09-07T21:56:10.885Z,101140.41
2022-09-07T21:58:37.643Z,101130.13
2022-09-07T22:01:17.130Z,101131.56
2022-09-07T22:03:45.961Z,101121.31
2022-09-07T22:06:13.509Z,101126.81
2022-09-07T22:08:41.807Z,101117.44
2022-09-07T22:11:13.245Z,101112.81
2022-09-07T22:13:40.742Z,101106.59
2022-09-07T22:16:07.845Z,101102.56
2022-09-07T22:18:36.842Z,101094.63
2022-09-07T22:21:23.998Z,101065.59
2022-09-07T22:23:53.078Z,101053.16
2022-09-07T22:26:21.650Z,101046.91
2022-09-07T22:28:48.934Z,101037.97
2022-09-07T22:31:29.971Z,101030.31
2022-09-07T22:33:57.824Z,101023.69
2022-09-07T22:36:28.611Z,101012.94
2022-09-07T22:38:57.877Z,101000.88
2022-09-07T22:41:28.101Z,100995.88
2022-09-07T22:43:55.433Z,100993.53
2022-09-07T22:46:24.593Z,100991.28
2022-09-07T22:48:54.278Z,100986.66
2022-09-07T22:51:21.985Z,100981.06
2022-09-07T22:53:48.766Z,100962.88
2022-09-07T22:56:18.663Z,100961.63
2022-09-07T22:58:47.207Z,100953.97
2022-09-07T23:01:13.887Z,100941.69
2022-09-07T23:03:40.820Z,100924.31
2022-09-07T23:06:07.574Z,100919.19
2022-09-07T23:08:34.277Z,100907.22
2022-09-07T23:11:05.367Z,100896.47
2022-09-07T23:13:35.086Z,100889.53
2022-09-07T23:16:06.438Z,100888.41
2022-09-07T23:18:34.728Z,100892.94
2022-09-07T23:21:02.015Z,100884.56
2022-09-07T23:23:29.581Z,100858.41
2022-09-07T23:25:56.532Z,100851.78
2022-09-07T23:28:23.524Z,100857.72
2022-09-07T23:30:51.540Z,100858.03
2022-09-07T23:33:18.411Z,100857.78
2022-09-07T23:36:00.679Z,100845.19
2022-09-07T23:38:28.460Z,100794.28
2022-09-07T23:40:55.994Z,100783.78
2022-09-07T23:43:23.819Z,100786.97
2022-09-07T23:45:50.944Z,100771.84
2022-09-07T23:48:17.659Z,100756.56
2022-09-07T23:50:45.407Z,100760.91
2022-09-07T23:53:13.041Z,100755.28
2022-09-07T23:55:40.186Z,100751.09
2022-09-07T23:58:07.845Z,100754.44
